Terminal Aerodrome Forecast
Issued by NWS Flagstaff, AZ

Home | Current Version | Previous Version | Text Only | Print | Product List | Glossary On
Versions: 1 2 3 4 5 6 7 8 9 10 11 12 13
000
FTUS45 KFGZ 220539
TAFINW
TAF
KINW 220539Z 2206/2306 20011KT P6SM SCT140 SCT200
     FM221600 18010G20KT P6SM SCT080
     FM221900 20020G30KT P6SM SCT080
     FM230400 22010KT P6SM SCT040=

USA.gov is the U.S. government's official web portal to all federal, state and local government web resources and services.